Time;durP1;ratioP1;P1;durP2;ratioP2;P2;SDS_P1;SDS_P2;PMS_P1;PMS_P2;Temp;Humidity;BMP_temperature;BMP_pressure;BME280_temperature;BME280_humidity;BME280_pressure;Samples;Min_cycle;Max_cycle;Signal;HPM_P1;HPM_P2
2023/03/27 00:00:15;;;;;;;260.67;91.97;;;;;;;12.46;51.47;98675.47;325591;30;1330;-76
2023/03/27 00:00:26;;;;;;;258.52;93.22;;;;;;;12.51;51.44;98686.53;321911;30;1343;-75
2023/03/27 00:00:37;;;;;;;258.80;92.88;;;;;;;12.48;51.72;98678.84;320818;30;1218;-75
2023/03/27 00:00:49;;;;;;;258.27;92.27;;;;;;;12.48;51.63;98680.63;326035;30;2358;-76
2023/03/27 00:01:00;;;;;;;267.10;93.43;;;;;;;12.46;51.74;98677.25;328681;29;2402;-76
2023/03/27 00:01:11;;;;;;;265.02;92.38;;;;;;;12.44;51.74;98673.88;326498;30;1755;-77
2023/03/27 00:01:22;;;;;;;261.23;92.45;;;;;;;12.43;51.77;98678.28;322103;30;1404;-76
2023/03/27 00:01:32;;;;;;;257.27;91.75;;;;;;;12.46;51.83;98678.09;322503;30;1449;-76
2023/03/27 00:01:43;;;;;;;256.30;91.83;;;;;;;12.43;51.79;98672.19;321955;30;2052;-76
2023/03/27 00:01:56;;;;;;;253.38;91.07;;;;;;;12.45;51.73;98673.78;320870;30;1372;-76
2023/03/27 00:02:07;;;;;;;252.43;91.47;;;;;;;12.44;52.00;98676.50;319541;30;1458;-76
2023/03/27 00:02:19;;;;;;;255.25;91.50;;;;;;;12.45;51.95;98670.31;315924;30;2289;-76
2023/03/27 00:02:29;;;;;;;256.52;91.32;;;;;;;12.44;51.84;98679.97;315513;30;2775;-76
2023/03/27 00:02:40;;;;;;;255.40;91.43;;;;;;;12.45;52.01;98675.56;318549;31;874;-75
2023/03/27 00:02:50;;;;;;;251.57;90.65;;;;;;;12.47;51.90;98676.31;309555;31;1430;-76
2023/03/27 00:03:01;;;;;;;247.97;89.73;;;;;;;12.46;52.37;98678.09;307180;31;3153;-76
2023/03/27 00:03:13;;;;;;;249.25;89.63;;;;;;;12.45;52.40;98673.78;304206;31;2882;-76
2023/03/27 00:03:24;;;;;;;253.23;91.43;;;;;;;12.44;52.50;98674.72;308321;31;1296;-75
2023/03/27 00:03:34;;;;;;;255.77;91.57;;;;;;;12.43;52.39;98672.19;306966;32;2528;-75
2023/03/27 00:03:48;;;;;;;257.25;91.30;;;;;;;12.43;52.33;98677.44;305021;32;2237;-75
2023/03/27 00:03:59;;;;;;;252.20;91.28;;;;;;;12.42;52.50;98675.75;300068;32;3404;-78
2023/03/27 00:04:09;;;;;;;251.35;93.53;;;;;;;12.43;52.40;98672.19;301085;32;914;-76
2023/03/27 00:04:20;;;;;;;256.13;95.40;;;;;;;12.43;51.96;98675.66;303633;32;3628;-76
2023/03/27 00:04:30;;;;;;;259.80;96.03;;;;;;;12.40;52.14;98673.22;306056;31;3993;-76
2023/03/27 00:04:41;;;;;;;257.67;93.57;;;;;;;12.42;52.03;98675.75;307380;31;4250;-76
2023/03/27 00:04:53;;;;;;;251.57;91.07;;;;;;;12.42;52.02;98673.97;307470;32;927;-76
2023/03/27 00:05:04;;;;;;;249.60;88.76;;;;;;;12.37;52.13;98667.34;304260;32;4451;-75
2023/03/27 00:05:19;;;;;;;251.63;89.40;;;;;;;12.39;52.14;98670.72;300936;32;5205;-75
2023/03/27 00:05:30;;;;;;;252.15;90.22;;;;;;;12.33;52.21;98670.16;301372;32;4148;-76
2023/03/27 00:05:40;;;;;;;249.40;90.00;;;;;;;12.39;52.00;98675.94;301067;32;1555;-75
2023/03/27 00:06:23;;;;;;;251.13;90.13;;;;;;;12.33;52.43;98680.66;298035;33;830;-75
2023/03/27 00:06:34;;;;;;;251.25;91.45;;;;;;;12.31;52.11;98673.81;291513;33;5755;-76
2023/03/27 00:06:44;;;;;;;259.30;92.25;;;;;;;12.29;52.23;98673.91;289564;33;6581;-76
2023/03/27 00:06:55;;;;;;;260.00;92.80;;;;;;;12.29;52.47;98675.69;289113;34;968;-76
2023/03/27 00:07:06;;;;;;;263.77;94.15;;;;;;;12.29;52.47;98671.28;285641;33;6678;-76
2023/03/27 00:07:43;;;;;;;263.17;93.65;;;;;;;12.30;52.61;98672.13;288461;33;6570;-76
2023/03/27 00:07:54;;;;;;;260.90;90.93;;;;;;;12.28;53.04;98674.84;281746;34;921;-75
2023/03/27 00:08:05;;;;;;;259.10;93.87;;;;;;;12.26;53.37;98671.47;281326;34;4789;-76
2023/03/27 00:09:39;;;;;;;250.75;85.16;;;;;;;12.10;55.43;98667.31;2500452;27;20495;-75
2023/03/27 00:09:49;;;;;;;264.57;88.63;;;;;;;12.07;55.46;98668.34;352887;28;941;-75
2023/03/27 00:10:00;;;;;;;260.35;88.13;;;;;;;12.08;55.13;98672.66;348902;28;1288;-75
2023/03/27 00:10:11;;;;;;;258.27;88.32;;;;;;;12.03;55.43;98666.84;347325;28;1753;-75
2023/03/27 00:10:22;;;;;;;258.70;88.37;;;;;;;12.08;55.67;98663.94;348921;28;844;-75
2023/03/27 00:10:32;;;;;;;259.27;89.30;;;;;;;12.06;55.90;98661.41;346757;28;1340;-75
2023/03/27 00:10:43;;;;;;;259.42;88.20;;;;;;;12.11;56.75;98656.72;347505;28;1227;-75
2023/03/27 00:10:54;;;;;;;257.87;89.40;;;;;;;12.13;56.71;98664.50;348210;28;1430;-75
2023/03/27 00:11:05;;;;;;;257.02;88.97;;;;;;;12.10;56.73;98665.53;348786;28;988;-75
2023/03/27 00:11:15;;;;;;;257.58;89.20;;;;;;;12.11;56.66;98661.13;350295;28;1215;-75
2023/03/27 00:11:26;;;;;;;255.32;88.40;;;;;;;12.10;57.05;98665.53;350221;28;828;-75
2023/03/27 00:11:36;;;;;;;252.23;88.40;;;;;;;12.10;56.76;98662.91;350133;28;1283;-75
2023/03/27 00:11:47;;;;;;;251.98;88.75;;;;;;;12.13;57.83;98667.94;351630;28;866;-75
2023/03/27 00:11:58;;;;;;;251.93;88.63;;;;;;;12.14;57.41;98663.53;351609;28;1096;-75
2023/03/27 00:12:08;;;;;;;253.80;87.82;;;;;;;12.12;57.50;98658.41;346130;28;832;-75
2023/03/27 00:12:18;;;;;;;254.20;86.13;;;;;;;12.12;57.54;98660.19;346911;28;848;-75
2023/03/27 00:12:30;;;;;;;254.60;87.67;;;;;;;12.04;57.57;98655.41;347492;28;808;-76
2023/03/27 00:12:43;;;;;;;254.63;88.40;;;;;;;12.06;57.37;98658.78;348755;28;1421;-76
2023/03/27 00:12:53;;;;;;;253.73;88.90;;;;;;;12.06;57.51;98663.19;350177;28;1237;-76
2023/03/27 00:13:04;;;;;;;253.80;88.60;;;;;;;12.06;57.69;98653.53;349495;28;1354;-76
2023/03/27 00:13:15;;;;;;;254.90;88.63;;;;;;;12.09;57.84;98657.75;348612;28;1352;-76
2023/03/27 00:13:25;;;;;;;253.68;87.25;;;;;;;12.09;57.62;98663.84;350017;28;1240;-77
2023/03/27 00:13:36;;;;;;;251.25;87.22;;;;;;;12.09;57.75;98658.59;351441;28;1303;-76
2023/03/27 00:13:48;;;;;;;248.50;86.83;;;;;;;12.08;57.66;98656.06;351448;28;1337;-76
2023/03/27 00:13:59;;;;;;;245.16;85.22;;;;;;;12.10;57.88;98659.44;351507;28;1342;-76
2023/03/27 00:14:10;;;;;;;245.67;86.40;;;;;;;12.07;58.22;98649.97;348311;28;3208;-76
2023/03/27 00:14:20;;;;;;;248.85;86.53;;;;;;;12.03;57.91;98643.25;348537;28;974;-76
2023/03/27 00:14:31;;;;;;;254.93;87.53;;;;;;;12.06;57.72;98653.53;351634;28;1378;-76
2023/03/27 00:14:42;;;;;;;254.57;87.20;;;;;;;12.08;57.74;98656.06;351510;28;1413;-76
2023/03/27 00:14:52;;;;;;;250.23;86.27;;;;;;;12.09;57.79;98663.84;350146;28;1202;-76
2023/03/27 00:15:03;;;;;;;246.70;86.30;;;;;;;12.04;57.65;98647.53;349448;28;1229;-77
2023/03/27 00:15:15;;;;;;;247.47;86.87;;;;;;;12.06;57.75;98650.91;348670;28;1218;-76
2023/03/27 00:15:26;;;;;;;250.27;87.10;;;;;;;12.03;57.61;98651.09;347396;28;1338;-76
2023/03/27 00:15:36;;;;;;;250.40;87.67;;;;;;;12.03;57.65;98648.47;344862;28;1084;-76
2023/03/27 00:15:49;;;;;;;247.50;86.72;;;;;;;12.02;57.55;98657.28;343041;28;1627;-76
2023/03/27 00:15:59;;;;;;;245.23;86.95;;;;;;;11.98;57.16;98647.94;346028;28;1482;-76
2023/03/27 00:16:10;;;;;;;245.30;85.85;;;;;;;12.01;57.52;98654.75;346225;28;809;-76
2023/03/27 00:16:21;;;;;;;245.15;85.30;;;;;;;11.99;57.68;98649.59;343270;28;1653;-76
2023/03/27 00:16:32;;;;;;;247.00;85.65;;;;;;;12.03;57.44;98656.34;345875;28;1287;-76
2023/03/27 00:16:45;;;;;;;246.18;86.18;;;;;;;12.04;57.41;98659.81;344777;28;1051;-76
2023/03/27 00:16:58;;;;;;;247.05;86.25;;;;;;;12.02;57.43;98656.44;343489;28;936;-76
2023/03/27 00:17:09;;;;;;;248.93;85.30;;;;;;;12.03;57.38;98656.34;340254;29;1576;-76
2023/03/27 00:17:20;;;;;;;249.07;85.40;;;;;;;11.99;58.02;98652.22;342532;28;913;-75
2023/03/27 00:17:30;;;;;;;249.82;86.07;;;;;;;11.98;57.82;98656.63;343789;28;1474;-75
2023/03/27 00:17:43;;;;;;;249.90;87.93;;;;;;;11.94;57.48;98651.66;343342;28;1260;-75
2023/03/27 00:17:54;;;;;;;247.95;87.25;;;;;;;11.92;58.01;98650.91;340732;29;918;-75
2023/03/27 00:18:04;;;;;;;249.77;86.57;;;;;;;11.96;57.95;98662.91;342539;28;1284;-76
2023/03/27 00:18:15;;;;;;;250.33;87.47;;;;;;;11.96;57.85;98657.66;342542;28;1359;-76
2023/03/27 00:18:27;;;;;;;247.77;86.78;;;;;;;11.97;57.86;98664.59;335336;29;1562;-76
2023/03/27 00:18:38;;;;;;;244.77;86.05;;;;;;;11.97;58.09;98654.94;337344;29;2129;-76
2023/03/27 00:18:48;;;;;;;244.45;85.60;;;;;;;11.99;57.83;98662.72;337425;29;1321;-77
2023/03/27 00:18:59;;;;;;;244.93;85.83;;;;;;;11.97;58.17;98664.59;337849;29;1540;-77
2023/03/27 00:19:10;;;;;;;244.70;86.40;;;;;;;11.95;57.87;98653.34;336824;29;877;-77
2023/03/27 00:19:21;;;;;;;245.73;86.10;;;;;;;11.94;58.02;98657.75;340113;29;1389;-77
2023/03/27 00:19:32;;;;;;;243.80;84.60;;;;;;;11.95;58.29;98656.81;333911;29;1531;-77
2023/03/27 00:19:43;;;;;;;242.45;84.07;;;;;;;11.95;58.04;98658.59;331620;29;1443;-77
2023/03/27 00:19:56;;;;;;;243.68;84.72;;;;;;;11.94;57.95;98655.13;326713;30;1301;-77
2023/03/27 00:20:07;;;;;;;244.57;85.28;;;;;;;11.93;57.75;98665.72;330824;29;1921;-77
2023/03/27 00:20:22;;;;;;;245.50;86.17;;;;;;;11.92;57.83;98662.25;332028;29;2053;-77
2023/03/27 00:20:36;;;;;;;244.88;86.50;;;;;;;11.96;57.69;98660.28;328102;29;2076;-75
2023/03/27 00:20:46;;;;;;;245.60;86.88;;;;;;;11.97;57.60;98659.34;326209;30;1756;-75
2023/03/27 00:20:59;;;;;;;245.15;85.05;;;;;;;11.96;57.66;98657.66;326856;30;856;-76
2023/03/27 00:21:10;;;;;;;244.98;86.30;;;;;;;11.98;57.70;98663.66;325456;30;856;-76
2023/03/27 00:21:21;;;;;;;246.90;88.20;;;;;;;12.00;57.62;98661.78;324961;30;1199;-76
2023/03/27 00:21:33;;;;;;;247.70;89.63;;;;;;;11.99;57.57;98657.47;326614;30;1775;-77
2023/03/27 00:21:43;;;;;;;248.15;88.85;;;;;;;11.98;57.47;98656.63;325062;30;2628;-76
2023/03/27 00:21:55;;;;;;;247.45;88.22;;;;;;;12.02;57.62;98656.44;326650;30;1231;-76
2023/03/27 00:22:05;;;;;;;247.90;85.50;;;;;;;12.03;57.28;98664.22;325876;30;2263;-75
2023/03/27 00:22:15;;;;;;;249.07;85.43;;;;;;;12.03;56.96;98653.72;325113;30;2370;-75
2023/03/27 00:22:28;;;;;;;246.93;86.50;;;;;;;12.02;57.18;98657.28;322007;30;786;-75
2023/03/27 00:22:39;;;;;;;244.68;85.10;;;;;;;12.04;57.08;98658.03;322067;30;955;-75
2023/03/27 00:22:54;;;;;;;244.02;84.07;;;;;;;11.98;56.67;98659.25;321628;30;2548;-75
2023/03/27 00:23:05;;;;;;;245.18;84.30;;;;;;;11.97;56.78;98659.34;320894;30;3426;-75
2023/03/27 00:23:15;;;;;;;246.00;85.35;;;;;;;11.95;56.66;98658.59;318055;30;2615;-75
2023/03/27 00:23:28;;;;;;;245.63;86.30;;;;;;;11.90;56.20;98658.88;319733;30;1457;-75
2023/03/27 00:23:39;;;;;;;244.82;86.43;;;;;;;11.94;56.38;98654.28;316167;31;1106;-75
2023/03/27 00:23:50;;;;;;;244.82;86.82;;;;;;;11.93;56.18;98652.59;313423;31;2527;-75
2023/03/27 00:24:00;;;;;;;246.13;87.53;;;;;;;11.93;56.09;98657.84;309909;31;2462;-75
2023/03/27 00:24:11;;;;;;;248.30;88.50;;;;;;;11.93;56.05;98652.59;310641;31;879;-75
2023/03/27 00:24:21;;;;;;;250.32;88.65;;;;;;;11.90;55.65;98653.63;309519;31;3059;-75
2023/03/27 00:24:33;;;;;;;249.15;88.68;;;;;;;11.91;55.65;98654.47;310425;31;4157;-75
2023/03/27 00:24:44;;;;;;;248.77;88.05;;;;;;;11.93;55.44;98657.84;309945;31;2802;-75
2023/03/27 00:24:55;;;;;;;246.07;86.63;;;;;;;11.91;55.13;98649.25;307320;31;2348;-75
2023/03/27 00:25:06;;;;;;;244.10;85.65;;;;;;;11.89;55.04;98640.63;307837;32;3192;-75
2023/03/27 00:25:17;;;;;;;244.75;85.72;;;;;;;11.93;55.00;98655.22;305229;32;2360;-75
2023/03/27 00:25:27;;;;;;;244.90;85.87;;;;;;;11.90;54.79;98648.41;305151;32;1402;-75
2023/03/27 00:25:39;;;;;;;245.13;87.93;;;;;;;11.90;55.12;98653.63;308964;31;2443;-77
2023/03/27 00:25:50;;;;;;;244.48;88.97;;;;;;;11.91;54.81;98649.25;309911;31;3051;-76
2023/03/27 00:26:00;;;;;;;245.43;89.37;;;;;;;11.89;54.87;98649.31;308193;31;3785;-76
2023/03/27 00:26:11;;;;;;;245.93;88.03;;;;;;;11.93;54.61;98652.59;309580;31;851;-76
2023/03/27 00:26:22;;;;;;;248.90;88.47;;;;;;;11.91;54.33;98647.47;312157;31;3272;-76
2023/03/27 00:26:32;;;;;;;248.23;88.17;;;;;;;11.93;54.33;98650.81;309486;31;3825;-76
2023/03/27 00:26:43;;;;;;;247.15;88.05;;;;;;;11.93;53.94;98655.22;307395;32;1152;-76
2023/03/27 00:26:53;;;;;;;244.32;86.78;;;;;;;11.82;53.97;98641.94;307389;32;868;-76
2023/03/27 00:27:04;;;;;;;248.10;88.47;;;;;;;11.90;53.97;98655.41;305864;32;3884;-76
2023/03/27 00:27:14;;;;;;;249.68;89.13;;;;;;;11.92;53.86;98661.41;306197;31;4533;-76
2023/03/27 00:27:24;;;;;;;250.77;89.37;;;;;;;11.88;53.98;98655.50;307371;32;773;-76
2023/03/27 00:27:35;;;;;;;247.65;87.28;;;;;;;11.89;53.73;98656.34;305533;32;3153;-78
2023/03/27 00:27:46;;;;;;;248.60;88.10;;;;;;;11.83;54.03;98652.31;303078;32;3406;-78
2023/03/27 00:28:00;;;;;;;249.43;89.22;;;;;;;11.87;53.71;98655.59;303811;32;1498;-78
2023/03/27 00:28:12;;;;;;;249.27;88.65;;;;;;;11.82;53.60;98653.25;297939;33;1436;-78
2023/03/27 00:28:28;;;;;;;247.82;88.05;;;;;;;11.81;53.60;98650.72;297608;33;4565;-77
2023/03/27 00:28:38;;;;;;;244.98;88.07;;;;;;;11.82;53.69;98653.25;291901;33;1719;-76
2023/03/27 00:28:49;;;;;;;242.18;86.57;;;;;;;11.81;53.52;98650.72;288549;33;5973;-76
2023/03/27 00:28:59;;;;;;;242.60;86.13;;;;;;;11.79;53.42;98655.22;288057;34;7652;-76
2023/03/27 00:29:12;;;;;;;241.80;84.97;;;;;;;11.77;53.70;98651.84;288263;34;962;-76
2023/03/27 00:29:22;;;;;;;243.38;85.45;;;;;;;11.75;53.48;98654.53;289778;33;5432;-76
2023/03/27 00:29:33;;;;;;;244.93;86.50;;;;;;;11.73;53.31;98655.56;289981;33;6221;-76
2023/03/27 00:29:45;;;;;;;245.90;88.23;;;;;;;11.73;53.65;98653.78;286111;34;4920;-76
2023/03/27 00:29:56;;;;;;;247.85;89.57;;;;;;;11.73;53.67;98652.94;288178;34;958;-76
2023/03/27 00:30:07;;;;;;;247.35;89.22;;;;;;;11.71;53.39;98647.78;285094;34;5233;-76
2023/03/27 00:30:18;;;;;;;246.43;89.70;;;;;;;11.64;53.87;98649.97;282072;34;6647;-76
2023/03/27 00:30:29;;;;;;;246.32;89.20;;;;;;;11.62;53.83;98653.63;277318;35;7308;-76
2023/03/27 00:30:41;;;;;;;246.90;87.82;;;;;;;11.62;53.98;98659.72;276435;35;1079;-76
2023/03/27 00:30:54;;;;;;;245.18;86.45;;;;;;;11.57;53.75;98646.03;272983;35;7682;-76
2023/03/27 00:32:56;;;;;;;239.19;80.00;;;;;;;11.54;54.41;98656.69;2493957;27;20276;-75
2023/03/27 00:33:07;;;;;;;246.98;84.70;;;;;;;11.55;54.39;98653.16;351483;28;1356;-75
2023/03/27 00:33:18;;;;;;;248.85;85.72;;;;;;;11.58;54.35;98663.44;347438;28;1715;-75
2023/03/27 00:33:28;;;;;;;248.47;85.80;;;;;;;11.55;54.17;98647.06;347432;28;1232;-75
2023/03/27 00:33:38;;;;;;;251.97;86.57;;;;;;;11.56;54.22;98654.84;347343;28;1316;-75
2023/03/27 00:33:50;;;;;;;250.57;86.65;;;;;;;11.54;54.52;98651.47;347521;28;1271;-75
2023/03/27 00:34:02;;;;;;;247.02;85.13;;;;;;;11.57;54.24;98660.91;347408;28;903;-75
2023/03/27 00:34:12;;;;;;;245.88;85.05;;;;;;;11.54;54.39;98654.09;347474;28;847;-76
2023/03/27 00:34:23;;;;;;;243.45;83.07;;;;;;;11.54;54.41;98656.69;347453;28;1283;-75
2023/03/27 00:34:33;;;;;;;243.70;83.80;;;;;;;11.56;54.63;98660.06;348643;28;1442;-77
2023/03/27 00:34:43;;;;;;;244.05;83.13;;;;;;;11.52;54.70;98658.56;347391;28;1410;-76
2023/03/27 00:34:54;;;;;;;244.40;83.83;;;;;;;11.51;54.66;98654.25;345975;28;1208;-76
2023/03/27 00:35:06;;;;;;;244.10;83.82;;;;;;;11.54;54.44;98661.09;348060;28;1274;-76
2023/03/27 00:35:16;;;;;;;245.05;85.07;;;;;;;11.54;54.64;98661.09;348777;28;914;-76
2023/03/27 00:35:28;;;;;;;245.80;83.60;;;;;;;11.50;54.67;98657.81;348819;28;808;-76
2023/03/27 00:35:38;;;;;;;246.05;85.03;;;;;;;11.49;54.88;98657.91;347346;28;1433;-76
2023/03/27 00:35:49;;;;;;;244.07;84.50;;;;;;;11.41;54.93;98634.78;346182;28;857;-75
2023/03/27 00:35:59;;;;;;;243.53;84.73;;;;;;;11.47;54.92;98654.53;347438;28;1219;-75
2023/03/27 00:36:10;;;;;;;244.95;84.60;;;;;;;11.50;54.90;98654.34;348686;28;1295;-75
2023/03/27 00:36:20;;;;;;;245.85;84.28;;;;;;;11.48;54.71;98653.59;345903;28;1236;-75
2023/03/27 00:36:32;;;;;;;248.63;85.93;;;;;;;11.54;54.67;98664.56;347274;28;1333;-75
2023/03/27 00:36:47;;;;;;;245.98;84.65;;;;;;;11.51;54.92;98659.50;346055;28;1032;-76
2023/03/27 00:36:57;;;;;;;245.48;84.90;;;;;;;11.53;54.63;98660.25;345845;28;1401;-76
2023/03/27 00:37:08;;;;;;;246.03;85.33;;;;;;;11.51;54.84;98656.03;346111;28;792;-76
2023/03/27 00:37:18;;;;;;;247.88;84.55;;;;;;;11.52;54.79;98655.94;345717;28;1594;-76
2023/03/27 00:37:29;;;;;;;249.40;84.67;;;;;;;11.49;54.66;98653.50;344779;28;1208;-75
2023/03/27 00:37:39;;;;;;;248.02;83.18;;;;;;;11.49;55.01;98655.28;344712;28;885;-75
2023/03/27 00:37:50;;;;;;;245.15;84.03;;;;;;;11.48;55.04;98657.06;343335;28;901;-75
2023/03/27 00:38:00;;;;;;;245.67;85.43;;;;;;;11.50;55.03;98659.59;344636;28;1206;-75
2023/03/27 00:38:11;;;;;;;245.07;86.13;;;;;;;11.45;55.04;98648.53;343411;28;1066;-75
2023/03/27 00:38:21;;;;;;;245.60;85.70;;;;;;;11.47;54.88;98650.13;345934;28;912;-75
2023/03/27 00:38:32;;;;;;;242.75;83.80;;;;;;;11.46;54.93;98658.94;344478;28;888;-75
2023/03/27 00:38:44;;;;;;;244.27;84.40;;;;;;;11.45;54.91;98654.63;343333;28;1463;-75
2023/03/27 00:38:55;;;;;;;246.57;85.03;;;;;;;11.48;54.91;98659.69;343422;28;2048;-75
2023/03/27 00:39:05;;;;;;;248.87;86.87;;;;;;;11.50;54.78;98652.56;346585;28;920;-75
2023/03/27 00:39:16;;;;;;;247.90;85.72;;;;;;;11.50;54.86;98655.19;346481;28;947;-75
2023/03/27 00:39:27;;;;;;;246.73;85.20;;;;;;;11.50;54.86;98647.34;347463;28;911;-75
2023/03/27 00:39:38;;;;;;;246.68;84.75;;;;;;;11.55;54.86;98661.00;342041;28;1906;-75
2023/03/27 00:39:49;;;;;;;248.32;86.20;;;;;;;11.54;54.62;98653.25;340609;28;1345;-75
2023/03/27 00:40:00;;;;;;;248.85;86.55;;;;;;;11.55;54.69;98650.53;340627;29;1377;-75
2023/03/27 00:40:16;;;;;;;248.32;86.55;;;;;;;11.55;54.71;98647.91;342053;28;933;-75
2023/03/27 00:40:26;;;;;;;244.15;84.15;;;;;;;11.57;54.67;98656.53;338037;29;1187;-75
2023/03/27 00:40:37;;;;;;;244.20;84.23;;;;;;;11.50;54.78;98652.56;336766;29;815;-76
2023/03/27 00:40:49;;;;;;;245.68;84.95;;;;;;;11.55;55.09;98653.16;334522;29;1345;-76
2023/03/27 00:40:59;;;;;;;244.77;84.13;;;;;;;11.50;54.70;98654.34;335951;29;1403;-76
2023/03/27 00:41:11;;;;;;;247.67;84.40;;;;;;;11.49;54.85;98653.50;335590;29;1270;-76
2023/03/27 00:41:22;;;;;;;244.85;83.70;;;;;;;11.49;54.89;98648.28;333950;29;3238;-75
2023/03/27 00:41:32;;;;;;;244.55;85.35;;;;;;;11.47;54.72;98647.53;332099;29;1399;-75
2023/03/27 00:41:43;;;;;;;245.13;85.55;;;;;;;11.48;54.95;98651.81;331633;29;1391;-75
2023/03/27 00:41:54;;;;;;;246.97;87.07;;;;;;;11.49;55.03;98650.06;333042;29;863;-77
2023/03/27 00:42:04;;;;;;;248.50;85.75;;;;;;;11.46;55.12;98647.63;333704;29;1226;-76
2023/03/27 00:42:21;;;;;;;246.80;85.60;;;;;;;11.46;54.64;98650.22;336656;29;1228;-76
2023/03/27 00:42:32;;;;;;;244.52;84.93;;;;;;;11.44;54.79;98649.47;332135;29;1493;-76
2023/03/27 00:42:45;;;;;;;246.32;84.72;;;;;;;11.45;55.03;98652.00;330263;29;1440;-76
2023/03/27 00:42:56;;;;;;;247.82;86.28;;;;;;;11.44;55.10;98650.31;329197;30;915;-75
2023/03/27 00:43:26;;;;;;;247.33;86.30;;;;;;;11.42;55.25;98649.56;331242;29;1946;-75
2023/03/27 00:43:41;;;;;;;242.25;82.45;;;;;;;11.41;55.25;98647.03;333573;29;1787;-76
2023/03/27 00:43:52;;;;;;;243.75;83.70;;;;;;;11.40;54.94;98643.56;329995;29;2465;-76
2023/03/27 00:44:20;;;;;;;244.63;84.72;;;;;;;11.40;55.42;98640.97;328907;29;1616;-76
2023/03/27 00:44:33;;;;;;;245.60;81.53;;;;;;;11.37;55.43;98633.28;330289;29;1269;-76
2023/03/27 00:44:44;;;;;;;248.05;81.60;;;;;;;11.41;55.07;98639.19;331545;29;1601;-77
2023/03/27 00:44:54;;;;;;;249.55;82.60;;;;;;;11.42;55.32;98640.88;330469;29;1008;-77
2023/03/27 00:45:05;;;;;;;248.20;84.63;;;;;;;11.42;55.14;98641.72;329912;29;2043;-75
2023/03/27 00:45:20;;;;;;;251.68;86.78;;;;;;;11.44;55.27;98639.84;327077;29;2466;-74
2023/03/27 00:45:31;;;;;;;249.48;86.13;;;;;;;11.40;55.37;98633.09;327778;30;2530;-76
2023/03/27 00:45:42;;;;;;;247.63;85.82;;;;;;;11.40;55.49;98627.84;323066;30;1226;-76
2023/03/27 00:45:57;;;;;;;246.93;84.32;;;;;;;11.37;55.60;98635.06;323031;30;1511;-76
2023/03/27 00:46:13;;;;;;;248.90;84.13;;;;;;;11.41;55.44;98640.03;325546;30;1214;-77
2023/03/27 00:46:36;;;;;;;245.98;83.07;;;;;;;11.39;55.22;98634.03;324349;30;852;-76
2023/03/27 00:46:48;;;;;;;243.98;83.25;;;;;;;11.39;55.41;98635.81;320325;30;2027;-76
2023/03/27 00:47:01;;;;;;;244.85;83.88;;;;;;;11.38;55.37;98639.38;316833;30;2611;-76
2023/03/27 00:47:13;;;;;;;243.50;82.80;;;;;;;11.41;55.25;98640.03;315082;31;905;-76
2023/03/27 00:47:34;;;;;;;245.20;83.63;;;;;;;11.45;55.15;98636.28;311720;31;952;-76
2023/03/27 00:47:46;;;;;;;248.77;85.45;;;;;;;11.43;54.91;98640.78;304686;32;3309;-76
2023/03/27 00:48:01;;;;;;;250.05;86.57;;;;;;;11.47;54.80;98638.81;304133;32;1336;-76
2023/03/27 00:48:11;;;;;;;246.65;85.72;;;;;;;11.47;54.92;98644.91;302009;32;1576;-76
2023/03/27 00:48:22;;;;;;;244.55;84.97;;;;;;;11.45;54.99;98640.69;303686;32;3080;-76
2023/03/27 00:48:34;;;;;;;243.23;85.05;;;;;;;11.40;55.13;98638.34;301639;32;2636;-75
2023/03/27 00:48:46;;;;;;;244.23;85.28;;;;;;;11.42;55.01;98635.63;299734;32;2553;-75
2023/03/27 00:48:56;;;;;;;244.55;85.03;;;;;;;11.39;55.04;98636.66;297873;33;1779;-75
2023/03/27 00:49:08;;;;;;;246.18;85.43;;;;;;;11.35;55.05;98632.53;297296;33;3015;-75
2023/03/27 00:49:19;;;;;;;247.95;85.78;;;;;;;11.39;55.24;98641.03;299821;32;3889;-76
2023/03/27 00:49:31;;;;;;;248.50;85.88;;;;;;;11.35;54.99;98635.16;299795;32;4347;-75
2023/03/27 00:49:41;;;;;;;248.02;85.88;;;;;;;11.35;54.92;98640.38;300019;32;993;-75
2023/03/27 00:49:52;;;;;;;246.53;85.33;;;;;;;11.36;55.21;98644.69;293067;33;4505;-75
2023/03/27 00:50:15;;;;;;;243.75;84.45;;;;;;;11.37;54.93;98643.75;293771;33;5136;-76
2023/03/27 00:50:31;;;;;;;244.68;84.13;;;;;;;11.38;54.91;98634.13;291954;33;5035;-76
2023/03/27 00:50:42;;;;;;;245.13;83.25;;;;;;;11.32;55.07;98633.56;290155;34;923;-76
2023/03/27 00:50:52;;;;;;;244.02;83.13;;;;;;;11.35;55.11;98635.16;291126;34;844;-76
2023/03/27 00:51:04;;;;;;;245.85;84.65;;;;;;;11.34;55.12;98633.47;287950;34;4537;-76
2023/03/27 00:51:14;;;;;;;244.68;85.90;;;;;;;11.33;55.32;98642.25;285628;34;3968;-76
2023/03/27 00:51:25;;;;;;;243.57;84.95;;;;;;;11.37;55.04;98642.91;286221;34;1241;-76
2023/03/27 00:51:36;;;;;;;243.83;85.27;;;;;;;11.35;55.24;98629.91;284077;34;5373;-76
2023/03/27 00:51:46;;;;;;;244.35;85.35;;;;;;;11.36;55.08;98634.22;284971;34;6999;-76
2023/03/27 00:51:57;;;;;;;245.25;85.05;;;;;;;11.34;55.47;98633.47;288221;34;1027;-76
2023/03/27 00:52:08;;;;;;;245.65;85.25;;;;;;;11.39;55.42;98641.03;283506;34;1323;-76
2023/03/27 00:52:20;;;;;;;245.40;84.50;;;;;;;11.36;55.54;98636.00;282538;34;7692;-76
2023/03/27 00:52:30;;;;;;;245.65;85.05;;;;;;;11.37;55.34;98635.06;279355;34;6180;-76
2023/03/27 00:52:41;;;;;;;246.60;86.00;;;;;;;11.38;55.57;98634.97;279069;35;843;-76
2023/03/27 00:52:57;;;;;;;247.35;87.40;;;;;;;11.32;55.65;98630.09;280891;34;6283;-76
2023/03/27 00:53:15;;;;;;;246.07;86.05;;;;;;;11.30;55.52;98637.19;280788;35;1520;-76
2023/03/27 00:53:27;;;;;;;245.70;86.15;;;;;;;11.32;55.54;98633.56;278986;35;925;-76
2023/03/27 00:53:38;;;;;;;253.07;86.68;;;;;;;11.31;55.74;98629.25;277388;35;860;-76
2023/03/27 00:53:48;;;;;;;253.17;86.33;;;;;;;11.31;55.58;98628.41;275257;35;13437;-76
2023/03/27 00:53:58;;;;;;;254.60;88.05;;;;;;;11.32;55.71;98635.31;272301;36;7390;-75
2023/03/27 00:54:09;;;;;;;249.83;88.23;;;;;;;11.26;55.64;98633.09;270450;36;800;-77
2023/03/27 00:54:25;;;;;;;250.63;89.10;;;;;;;11.24;56.27;98632.34;266676;36;9694;-75
2023/03/27 00:54:38;;;;;;;250.65;93.03;;;;;;;11.23;56.02;98631.50;266540;36;9746;-76
2023/03/27 00:54:49;;;;;;;250.82;93.63;;;;;;;11.18;55.93;98620.47;263604;36;8787;-75
2023/03/27 00:57:20;;;;;;;234.68;78.39;;;;;;;11.27;55.69;98622.50;2501839;27;20569;-77
2023/03/27 00:57:31;;;;;;;244.20;80.97;;;;;;;11.26;55.67;98617.38;352869;28;1471;-77
2023/03/27 00:57:42;;;;;;;245.55;81.68;;;;;;;11.25;56.15;98618.31;351729;28;907;-77
2023/03/27 00:57:55;;;;;;;244.32;82.75;;;;;;;11.27;55.38;98622.50;350255;28;836;-77
2023/03/27 00:58:09;;;;;;;242.73;82.50;;;;;;;11.30;55.52;98626.72;348944;28;900;-77
2023/03/27 00:58:39;;;;;;;243.98;81.95;;;;;;;11.38;55.11;98623.66;347397;28;1373;-77
2023/03/27 00:58:55;;;;;;;242.20;80.25;;;;;;;11.37;55.13;98617.56;345313;28;1806;-76
2023/03/27 00:59:09;;;;;;;241.80;83.04;;;;;;;11.36;54.95;98621.13;343380;28;852;-76
2023/03/27 00:59:22;;;;;;;241.43;82.82;;;;;;;11.38;54.96;98619.25;344640;28;872;-76
2023/03/27 00:59:34;;;;;;;242.18;82.38;;;;;;;11.34;55.08;98612.50;343387;28;3387;-76
2023/03/27 00:59:45;;;;;;;245.23;82.80;;;;;;;11.37;55.02;98614.94;343356;28;1171;-75
2023/03/27 00:59:55;;;;;;;244.10;81.17;;;;;;;11.35;54.99;98614.19;344894;28;1257;-75
2023/03/27 01:00:12;;;;;;;242.37;81.30;;;;;;;11.35;54.98;98614.19;347506;28;849;-75
2023/03/27 01:00:22;;;;;;;241.93;83.60;;;;;;;11.36;55.11;98615.03;346154;28;836;-76
2023/03/27 01:00:33;;;;;;;241.33;84.70;;;;;;;11.34;55.04;98609.88;344816;28;840;-76
2023/03/27 01:00:44;;;;;;;242.20;84.40;;;;;;;11.36;55.28;98615.03;347283;28;1224;-76
2023/03/27 01:00:54;;;;;;;242.57;83.77;;;;;;;11.29;54.88;98598.84;345921;28;1239;-76
2023/03/27 01:01:05;;;;;;;242.93;82.70;;;;;;;11.36;55.01;98615.03;347365;28;994;-76